»·PEaware :: DAL1163 KSAN-KDEN

DAL1163 :: KSAN-KDEN

FLIGHT INFORMATION

Flight Status: Arrived
Operator:
Delta Air Lines
More flights by this operator :: More flights under this callsign
Pilot: Alli C. (3122)
Aircraft: BOEING 757-200
(B752)
More flights by this aircraft type
Origin: KSAN San Diego Intl-Lindbergh
United States
Destination: KDEN Denver Intl
United States
More flights between these airports :: More routes between these airports
Route: ZZOOO1 MTBAL AVRRY EED J236 TBC OURAY PEEKK3
File this flight plan on PilotEdge
Remarks: PBN / A1B3B4B5C4D4O4 DOF / 171008 REG / N627DL EET / KZDV0051 SEL / ABCK OPR / DAL RMK / TCAS
Altitude:
(Current/Filed)
35,000ft
Speed:
(Current/Filed)
466kts
Departed: 08-Oct-17 10:15 AM
Arrived: 08-Oct-17 12:15 PM
Distance/Time
Traveled:
740nm/2:00
Distance/Time
To Go:
Arrived

Flight Plot

Page will automatically refresh every two minutes.

Flight plan parsing failed; only flown route is shown


Map Options




Map Legend


Flown Route
Filed Route
Departure Airport
Arrival Airport
Navaid (VOR, NDB)
Fix

Horizontal Profiles

Position Reports

Time Latitude Longitude Heading Altitude Ground
Speed
08-Oct-17 09:30 32.731867 -117.195821 247 29ft 0kts
08-Oct-17 09:31 32.731867 -117.195821 247 29ft 0kts
08-Oct-17 09:32 32.731867 -117.195821 247 29ft 0kts
08-Oct-17 09:33 32.731867 -117.195821 247 29ft 0kts
08-Oct-17 09:34 32.731867 -117.195821 247 29ft 0kts
08-Oct-17 09:35 32.731867 -117.195821 247 29ft 0kts
08-Oct-17 09:36 32.731867 -117.195821 247 29ft 0kts
08-Oct-17 09:37 32.731867 -117.195821 247 29ft 0kts
08-Oct-17 09:38 32.731867 -117.195821 247 29ft 0kts
08-Oct-17 09:39 32.731867 -117.195821 247 29ft 0kts
08-Oct-17 09:40 32.731867 -117.195821 247 29ft 0kts
08-Oct-17 09:41 32.731867 -117.195821 247 29ft 0kts
08-Oct-17 09:42 32.731867 -117.195821 247 29ft 0kts
08-Oct-17 09:43 32.731867 -117.195821 247 29ft 0kts
08-Oct-17 09:44 32.731867 -117.195821 247 29ft 0kts
08-Oct-17 09:45 32.731867 -117.195821 247 29ft 0kts
08-Oct-17 09:46 32.731867 -117.195821 247 29ft 0kts
08-Oct-17 09:47 32.731867 -117.195821 247 29ft 0kts
08-Oct-17 09:48 32.731867 -117.195821 247 29ft 0kts
08-Oct-17 09:49 32.731867 -117.195821 247 29ft 0kts
08-Oct-17 09:50 32.731867 -117.195821 247 29ft 0kts
08-Oct-17 09:51 32.731867 -117.195821 247 29ft 0kts
08-Oct-17 09:52 32.731867 -117.195821 247 29ft 0kts
08-Oct-17 09:53 32.731867 -117.195821 247 28ft 0kts
08-Oct-17 09:54 32.731867 -117.195821 247 28ft 0kts
08-Oct-17 09:55 32.731867 -117.195821 247 28ft 0kts
08-Oct-17 09:56 32.731867 -117.195821 247 28ft 0kts
08-Oct-17 09:57 32.731867 -117.195821 247 28ft 0kts
08-Oct-17 09:58 32.731867 -117.195821 247 28ft 0kts
08-Oct-17 09:59 32.731867 -117.195821 247 28ft 0kts
08-Oct-17 10:00 32.731867 -117.195821 247 28ft 0kts
08-Oct-17 10:01 32.731867 -117.195821 247 28ft 0kts
08-Oct-17 10:02 32.731867 -117.195820 247 29ft 0kts
08-Oct-17 10:03 32.731910 -117.195285 306 28ft 2kts
08-Oct-17 10:04 32.731657 -117.195118 359 28ft 0kts
08-Oct-17 10:05 32.731657 -117.195118 359 28ft 0kts
08-Oct-17 10:06 32.731657 -117.195118 359 28ft 0kts
08-Oct-17 10:07 32.731657 -117.195118 359 28ft 0kts
08-Oct-17 10:08 32.731816 -117.195100 14 28ft 3kts
08-Oct-17 10:09 32.733277 -117.194042 54 28ft 8kts
08-Oct-17 10:10 32.732736 -117.190526 106 28ft 16kts
08-Oct-17 10:11 32.731360 -117.184845 106 28ft 20kts
08-Oct-17 10:12 32.729903 -117.178864 107 28ft 13kts
08-Oct-17 10:13 32.729508 -117.176791 74 28ft 0kts
08-Oct-17 10:14 32.729508 -117.176791 74 28ft 0kts
08-Oct-17 10:15 32.729508 -117.176791 74 28ft 0kts
08-Oct-17 10:16 32.729508 -117.176791 74 28ft 0kts
08-Oct-17 10:17 32.729508 -117.176791 74 28ft 0kts
08-Oct-17 10:18 32.729951 -117.175938 9 28ft 6kts
08-Oct-17 10:19 32.730805 -117.178312 285 29ft 48kts
08-Oct-17 10:20 32.742731 -117.220257 279 1328ft 161kts
08-Oct-17 10:21 32.753258 -117.286650 266 2899ft 249kts
08-Oct-17 10:22 32.702278 -117.318130 148 6548ft 262kts
08-Oct-17 10:23 32.650216 -117.264184 146 9655ft 277kts
08-Oct-17 10:24 32.622202 -117.170560 96 11524ft 353kts
08-Oct-17 10:25 32.610525 -117.048239 94 14274ft 387kts
08-Oct-17 10:26 32.601746 -116.919398 83 17071ft 402kts
08-Oct-17 10:27 32.634014 -116.793775 49 19569ft 404kts
08-Oct-17 10:28 32.725813 -116.724140 16 21850ft 402kts
08-Oct-17 10:29 32.830526 -116.674502 18 22862ft 407kts
08-Oct-17 10:30 32.935035 -116.623627 18 22858ft 407kts
08-Oct-17 10:31 33.039112 -116.571602 19 22863ft 408kts
08-Oct-17 10:32 33.125346 -116.526468 19 22864ft 408kts
08-Oct-17 10:33 33.222905 -116.474543 20 23962ft 416kts
08-Oct-17 10:34 33.329380 -116.417782 19 25901ft 426kts
08-Oct-17 10:35 33.421836 -116.334753 49 27519ft 453kts
08-Oct-17 10:36 33.495816 -116.212523 48 29036ft 462kts
08-Oct-17 10:37 33.573050 -116.087864 49 30432ft 472kts
08-Oct-17 10:38 33.632201 -115.945810 64 31806ft 487kts
08-Oct-17 10:39 33.679388 -115.795391 64 33537ft 482kts
08-Oct-17 10:40 33.725653 -115.645476 64 34724ft 480kts
08-Oct-17 10:42 33.799560 -115.519270 37 34730ft 460kts
08-Oct-17 10:43 33.893385 -115.417323 36 34875ft 459kts
08-Oct-17 10:44 33.985417 -115.318557 36 34880ft 459kts
08-Oct-17 10:45 34.079941 -115.217057 36 34775ft 459kts
08-Oct-17 10:46 34.172093 -115.117827 37 34753ft 459kts
08-Oct-17 10:47 34.266589 -115.015762 37 34780ft 459kts
08-Oct-17 10:48 34.360937 -114.913539 37 34753ft 459kts
08-Oct-17 10:49 34.455495 -114.810762 37 34779ft 459kts
08-Oct-17 10:50 34.549781 -114.707956 37 34779ft 459kts
08-Oct-17 10:50 34.628245 -114.622152 37 34779ft 459kts
08-Oct-17 10:52 34.738325 -114.501185 39 34778ft 460kts
08-Oct-17 10:52 34.798711 -114.392935 55 34783ft 471kts
08-Oct-17 10:53 34.859665 -114.257023 57 34880ft 473kts
08-Oct-17 10:54 34.921619 -114.116431 57 34882ft 472kts
08-Oct-17 10:56 34.993613 -113.951993 57 34882ft 472kts
08-Oct-17 10:56 35.044691 -113.834827 57 34883ft 472kts
08-Oct-17 10:57 35.104842 -113.696316 57 34886ft 472kts
08-Oct-17 10:58 35.164766 -113.557770 57 34891ft 472kts
08-Oct-17 10:59 35.225810 -113.416043 57 34891ft 472kts
08-Oct-17 11:00 35.285342 -113.277243 57 34886ft 472kts
08-Oct-17 11:01 35.345940 -113.135360 57 34886ft 472kts
08-Oct-17 11:02 35.406359 -112.993306 57 34888ft 472kts
08-Oct-17 11:03 35.466799 -112.850595 57 35021ft 472kts
08-Oct-17 11:04 35.527060 -112.707691 57 35022ft 472kts
08-Oct-17 11:05 35.588526 -112.561429 58 35028ft 491kts
08-Oct-17 11:06 35.650819 -112.412284 58 35025ft 491kts
08-Oct-17 11:07 35.711632 -112.266139 59 35018ft 492kts
08-Oct-17 11:08 35.773682 -112.116409 59 35018ft 496kts
08-Oct-17 11:09 35.836457 -111.964070 59 34994ft 496kts
08-Oct-17 11:10 35.898309 -111.813417 59 34995ft 496kts
08-Oct-17 11:11 35.960273 -111.661763 59 34996ft 496kts
08-Oct-17 11:12 36.022186 -111.509531 59 34997ft 497kts
08-Oct-17 11:13 36.083677 -111.357599 59 34976ft 497kts
08-Oct-17 11:14 36.144846 -111.215285 55 34834ft 495kts
08-Oct-17 11:15 36.215807 -111.069653 55 34832ft 495kts
08-Oct-17 11:16 36.286643 -110.922898 57 34835ft 508kts
08-Oct-17 11:17 36.358373 -110.772795 57 34833ft 506kts
08-Oct-17 11:18 36.429786 -110.622967 57 34835ft 506kts
08-Oct-17 11:19 36.500962 -110.473004 57 34837ft 506kts
08-Oct-17 11:20 36.570590 -110.325660 58 34830ft 506kts
08-Oct-17 11:21 36.641059 -110.175862 58 34910ft 506kts
08-Oct-17 11:22 36.711911 -110.024573 58 34967ft 506kts
08-Oct-17 11:23 36.782431 -109.873305 58 34969ft 506kts
08-Oct-17 11:24 36.852991 -109.721256 58 34970ft 506kts
08-Oct-17 11:25 36.923015 -109.569668 58 34972ft 506kts
08-Oct-17 11:26 36.992991 -109.417485 58 34973ft 506kts
08-Oct-17 11:27 37.060810 -109.269340 58 34966ft 506kts
08-Oct-17 11:28 37.127043 -109.123629 56 34918ft 495kts
08-Oct-17 11:29 37.195070 -108.974008 57 34914ft 496kts
08-Oct-17 11:30 37.263142 -108.823294 57 34915ft 497kts
08-Oct-17 11:31 37.330856 -108.672645 57 34916ft 497kts
08-Oct-17 11:32 37.398314 -108.521411 56 34917ft 497kts
08-Oct-17 11:33 37.465751 -108.370562 57 34925ft 498kts
08-Oct-17 11:34 37.529967 -108.225606 57 35016ft 498kts
08-Oct-17 11:35 37.597252 -108.073118 57 35020ft 499kts
08-Oct-17 11:36 37.664404 -107.920215 58 35021ft 499kts
08-Oct-17 11:37 37.731306 -107.767522 57 35022ft 499kts
08-Oct-17 11:38 37.799004 -107.613560 57 35021ft 499kts
08-Oct-17 11:39 37.865921 -107.459376 58 35025ft 500kts
08-Oct-17 11:40 37.929813 -107.307422 59 35017ft 500kts
08-Oct-17 11:41 37.995622 -107.152862 58 34998ft 501kts
08-Oct-17 11:42 38.061905 -106.997405 58 34940ft 501kts
08-Oct-17 11:43 38.125732 -106.848011 58 34941ft 501kts
08-Oct-17 11:44 38.192731 -106.691199 60 34904ft 515kts
08-Oct-17 11:45 38.271408 -106.547776 40 33370ft 484kts
08-Oct-17 11:46 38.365723 -106.431529 40 31742ft 466kts
08-Oct-17 11:47 38.454327 -106.321463 41 30138ft 450kts
08-Oct-17 11:48 38.542027 -106.212074 41 28498ft 436kts
08-Oct-17 11:49 38.627219 -106.105412 41 26911ft 423kts
08-Oct-17 11:50 38.710673 -105.999884 42 26747ft 424kts
08-Oct-17 11:51 38.793126 -105.895424 41 24981ft 411kts
08-Oct-17 11:52 38.873220 -105.794018 42 22773ft 400kts
08-Oct-17 11:53 38.949167 -105.697406 44 20817ft 369kts
08-Oct-17 11:54 39.020379 -105.606476 44 19276ft 357kts
08-Oct-17 11:55 39.089673 -105.517774 44 17810ft 352kts
08-Oct-17 11:56 39.155753 -105.433051 44 17253ft 349kts
08-Oct-17 11:57 39.223913 -105.346521 43 17211ft 350kts
08-Oct-17 11:58 39.297943 -105.264069 34 16852ft 355kts
08-Oct-17 11:59 39.373789 -105.188857 35 15332ft 334kts
08-Oct-17 12:00 39.445965 -105.118730 34 14972ft 335kts
08-Oct-17 12:01 39.520868 -105.045586 35 14152ft 335kts
08-Oct-17 12:02 39.591721 -104.975841 36 12953ft 309kts
08-Oct-17 12:03 39.659525 -104.909274 35 12965ft 299kts
08-Oct-17 12:04 39.718961 -104.851106 31 12651ft 258kts
08-Oct-17 12:05 39.787730 -104.841193 1 11083ft 252kts
08-Oct-17 12:06 39.856811 -104.840056 0 10969ft 248kts
08-Oct-17 12:07 39.925340 -104.839251 0 10076ft 245kts
08-Oct-17 12:08 39.992873 -104.838458 0 9068ft 242kts
08-Oct-17 12:09 40.058394 -104.838415 0 8076ft 237kts
08-Oct-17 12:10 40.119893 -104.831518 42 8002ft 227kts
08-Oct-17 12:11 40.139055 -104.760621 79 7716ft 201kts
08-Oct-17 12:12 40.136257 -104.687246 137 7716ft 212kts
08-Oct-17 12:13 40.090090 -104.681552 188 7256ft 165kts
08-Oct-17 12:14 40.045819 -104.686757 170 6379ft 163kts
08-Oct-17 12:15 40.001521 -104.685653 179 6363ft 161kts
08-Oct-17 12:16 39.957370 -104.686459 176 6589ft 157kts
08-Oct-17 12:17 39.914832 -104.686583 176 5842ft 154kts
08-Oct-17 12:18 39.879798 -104.687010 179 5443ft 70kts
08-Oct-17 12:19 39.872749 -104.686080 150 5442ft 0kts
08-Oct-17 12:20 39.872749 -104.686080 150 5442ft 0kts
08-Oct-17 12:21 39.871554 -104.685245 154 5442ft 9kts
08-Oct-17 12:22 39.869040 -104.684235 129 5442ft 10kts
08-Oct-17 12:23 39.865425 -104.683874 179 5442ft 24kts
08-Oct-17 12:24 39.858501 -104.683974 179 5442ft 25kts
08-Oct-17 12:25 39.855956 -104.680305 90 5442ft 19kts
08-Oct-17 12:26 39.855016 -104.676367 155 5443ft 8kts
08-Oct-17 12:27 39.854390 -104.675988 155 5442ft 0kts
08-Oct-17 12:28 39.854390 -104.675988 155 5442ft 0kts
08-Oct-17 12:29 39.854390 -104.675989 155 5443ft 0kts
08-Oct-17 12:30 39.854390 -104.675989 155 5443ft 0kts

Navigation Log

Ident Type
Flight plan parsing failed, navigation log unavailable